Lone Creek
                              Weekly Meteorological Summary
                             Station: Collegeville

              T e m p e r a t u r e   Avg   Avg   Max   Min     W  I  N  D     Time    Solar  Daily   Daily    Seas     Min
              Max  Time   Min  Time  Temp DewPt    RH    RH   Avg   Max  Gust  Time      Cal    ETo  Precip  Precip     Bat
   Date         F Occur     F Occur     F     F     %     %   mph   mph Dirof Occur     /cm2     In      In   7/1->   Volts
---------------------------------------------------------------------------------------------------------------------------
  07/15/18   96.8  1706  61.0   600  77.8  55.3    78    24   5.7  18.1   NNW  1442      766   0.31    0.00    0.00    12.3
  07/16/18  101.0  1612  58.5   614  78.0  53.2    80    15   5.9  16.6   NNW  1452      766   0.32    0.00    0.00    12.3
  07/17/18  102.8  1628  56.9   607  79.6  50.2    79    11   5.6  17.8    NW  1444      782   0.35    0.00    0.00    12.3
  07/18/18  104.4  1635  57.3   543  80.3  55.4    86    15   4.5  14.3    NW  1351      763   0.32    0.00    0.00    12.3
  07/19/18  102.9  1643  62.3   628  81.2  54.3    80    11   5.0  13.6   NNW  1443      751   0.32    0.00    0.00    12.3
  07/20/18   97.9  1653  63.0   604  79.4  55.3    73    22   7.1  17.6   NNW  1701      720   0.32    0.00    0.00    12.3
  07/21/18   94.2  1548  64.5   605  77.9  57.1    78    25   5.9  14.7    NW  1939      699   0.28    0.00    0.00    12.4

                                                                                                                               
 Avg/Total  100.0        60.5        79.2  54.4    79    17   5.7  16.1                  750   2.22    0.00

===========================================================================================================================


                                  Lone Creek
                    Collegeville - Hourly Observations

                       Dew        2min  2min 10min H o u r l y   Max SolRad       Daily Daily Daily
                Temp    Pt    RH  Wind  Wind  Gust  Wind  Wind  Wind  Watts  Prec  Prec  MinT  MaxT
  Date    Time     F     F     %   Dir   mph   mph   Dir   mph  Gust    /m2    In    In     F     F
---------------------------------------------------------------------------------------------------
  07/22/18 0300  66.2  53.8    64   NNE   3.7   5.6     N   3.5   6.8      0  0.00  0.00  65.7  71.1
  07/22/18 0200  67.7  53.2    60     N   4.7   7.3     N   3.4   7.3      0  0.00  0.00  66.8  71.1
  07/22/18 0100  67.9  51.7    56     N   2.5   4.7   NNE   3.4   7.5      0  0.00  0.00  67.7  71.1
  07/22/18 0000  70.5  51.1    50   NNE   3.5   5.8     N   3.8   6.9      0  0.00  0.00  64.5  94.2
  07/21/18 2300  71.6  52.6    51     N   3.7   4.9     N   2.4   4.9      0  0.00  0.00  64.5  94.2
  07/21/18 2200  76.6  50.1    39   NNE   1.6   2.5   NNW   1.7   4.9      0  0.00  0.00  64.5  94.2
  07/21/18 2100  75.9  53.2    45   WNW   4.6   5.9    NW   5.2  11.3      5  0.00  0.00  64.5  94.2
  07/21/18 2000  81.5  54.8    40    NW   8.5  12.8    NW   7.3  14.7    110  0.00  0.00  64.5  94.2
  07/21/18 1900  85.3  60.5    43    NW   5.8  10.4   NNW   8.6  13.9    281  0.00  0.00  64.5  94.2
  07/21/18 1800  88.6  60.1    38    NW  10.2  13.5    NW   9.3  14.4    476  0.00  0.00  64.5  94.2
  07/21/18 1700  92.7  61.3    35   NNW   6.6  12.3   NNW   8.3  13.0    663  0.00  0.00  64.5  94.2
  07/21/18 1600  92.6  57.5    31   NNW   8.7  12.3    NW   8.2  13.8    826  0.00  0.00  64.5  94.2
  07/21/18 1500  92.1  59.2    33    NW   8.1  12.1    NW   7.3  12.1    926  0.00  0.00  64.5  93.3
  07/21/18 1400  89.7  66.0    46     W   7.3  11.0   WNW   5.6  11.2    977  0.00  0.00  64.5  91.3
  07/21/18 1300  87.6  58.8    38   WNW   4.0   9.6    NW   5.3  13.2    973  0.00  0.00  64.5  88.4
  07/21/18 1200  85.8  57.8    39     N   5.8  12.3   NNW   4.8  12.3    885  0.00  0.00  64.5  86.2
  07/21/18 1100  81.9  58.3    45   NNW   4.9  10.3    NW   5.6  11.2    749  0.00  0.00  64.5  81.9
  07/21/18 1000  77.4  56.1    48    NW   6.7  10.8   NNW   5.8  10.8    600  0.00  0.00  64.5  78.8
  07/21/18 0900  74.1  59.3    60   NNW   5.5   8.1   NNW   5.7   9.1    406  0.00  0.00  64.5  74.5
  07/21/18 0800  68.8  58.8    70   NNW   7.4  10.0   NNW   7.4  11.1    202  0.00  0.00  64.5  74.0
  07/21/18 0700  66.6  58.4    75     N   6.2  10.3   NNW   6.4  10.3     46  0.00  0.00  64.5  74.0
  07/21/18 0600  65.0  57.9    78     N   4.8   7.5     N   4.8   7.8      1  0.00  0.00  64.7  74.0
  07/21/18 0500  65.8  57.0    73   NNW   4.2   6.2     N   4.2   6.8      0  0.00  0.00  65.7  74.0
  07/21/18 0400  67.0  56.6    69     N   4.5   7.8     N   5.9   9.9      0  0.00  0.00  66.9  74.0
  07/21/18 0300  68.9  56.3    64   NNW   5.9   8.7   NNW   5.5   9.4      0  0.00  0.00  68.5  74.0
  07/21/18 0200  69.9  55.4    60   NNW   6.6   9.0   NNW   6.5  13.2      0  0.00  0.00  69.6  74.0
  07/21/18 0100  71.8  54.6    54     N   6.7  10.2     N   6.5  10.8      0  0.00  0.00  71.8  74.0
  07/21/18 0000  73.7  54.9    52     N   6.5   8.9     N   6.1   9.6      0  0.00  0.00  63.0  97.9
  07/20/18 2300  75.8  55.2    49   NNE   5.5   8.3     N   5.0   8.6      0  0.00  0.00  63.0  97.9
  07/20/18 2200  79.2  57.1    47     N   3.1   6.7   NNW   6.5  12.7      0  0.00  0.00  63.0  97.9
  07/20/18 2100  82.3  57.4    43    NW   9.7  14.8    NW   8.2  14.8      7  0.00  0.00  63.0  97.9
  07/20/18 2000  85.7  60.0    42    NW   7.9  11.4   NNW   9.1  16.3    107  0.00  0.00  63.0  97.9
  07/20/18 1900  91.6  60.4    35    NW  11.7  15.8   NNW  11.0  16.7    288  0.00  0.00  63.0  97.9
  07/20/18 1800  94.4  61.1    33   NNW  11.4  17.1   NNW  11.8  17.6    488  0.00  0.00  63.0  97.9
  07/20/18 1700  96.8  61.5    31   NNW  11.6  17.2   NNW  11.6  17.4    674  0.00  0.00  63.0  97.9
  07/20/18 1600  97.3  58.5    28   NNW  12.0  17.3   NNW  10.3  17.3    831  0.00  0.00  63.0  97.6
  07/20/18 1500  95.2  57.9    29     N   9.5  15.3   NNW  10.0  16.6    939  0.00  0.00  63.0  97.0
  07/20/18 1400  95.7  52.6    24   NNW   9.6  14.6    NW  10.6  16.6    989  0.00  0.00  63.0  95.9
  07/20/18 1300  91.2  56.1    31    NW  10.4  14.7   NNW   9.1  14.9    988  0.00  0.00  63.0  91.6
  07/20/18 1200  87.7  55.8    34    NW   9.4  13.6    NW   7.1  13.6    916  0.00  0.00  63.0  87.9
  07/20/18 1100  81.9  57.4    43    NW   6.6  10.1    NW   6.3  10.8    795  0.00  0.00  63.0  82.0
  07/20/18 1000  76.4  56.8    51   WNW   7.0   9.9    NW   6.9  11.6    624  0.00  0.00  63.0  77.6
  07/20/18 0900  74.1  55.5    52   NNW   6.0   9.4    NW   6.3   9.5    428  0.00  0.00  63.0  74.6
  07/20/18 0800  69.6  56.5    63    NW   6.7   9.9   NNW   6.7  10.2    244  0.00  0.00  63.0  71.4
  07/20/18 0700  65.2  54.9    69   NNW   7.3   8.4   NNW   5.5   9.4     54  0.00  0.00  63.0  71.4
  07/20/18 0600  63.3  54.2    72     N   4.3   5.7   NNW   4.4   6.6      1  0.00  0.00  63.2  71.4
  07/20/18 0500  64.5  52.8    66   NNW   5.5   7.0   NNW   3.9   7.0      0  0.00  0.00  64.1  71.4
  07/20/18 0400  65.5  50.9    59    NW   2.9   5.2   NNW   3.8   6.8      0  0.00  0.00  65.2  71.4
  07/20/18 0300  66.2  49.9    56    NW   3.9   5.0    NW   3.3   5.0      0  0.00  0.00  65.2  71.4
  07/20/18 0200  66.1  49.1    54    NW   2.8   4.4   NNW   3.8   7.7      0  0.00  0.00  66.0  71.4
  07/20/18 0100  67.2  47.3    49    NW   2.2   3.4   NNW   3.1   6.4      0  0.00  0.00  67.1  71.4
  07/20/18 0000  71.4  46.2    41     N   4.8   7.7     N   4.4   8.0      0  0.00  0.00  62.3 102.9
  07/19/18 2300  73.4  47.3    39   NNE   3.9   6.7     N   3.8   6.8      0  0.00  0.00  62.3 102.9
  07/19/18 2200  77.4  48.5    36   NNE   2.9   4.2     N   3.7   6.8      0  0.00  0.00  62.3 102.9
  07/19/18 2100  80.9  49.8    34     N   4.2   6.1   NNW   5.1   8.3      8  0.00  0.00  62.3 102.9
  07/19/18 2000  88.3  52.1    29    NW   6.4  10.2   NNW   7.6  12.2    126  0.00  0.00  62.3 102.9
  07/19/18 1900  98.1  54.7    24   NNW   8.3  11.1   NNW   6.8  11.2    320  0.00  0.00  62.3 102.9
  07/19/18 1800 101.0  52.0    20    NW   7.1  10.1    NW   6.0  10.1    526  0.00  0.00  62.3 102.9
  07/19/18 1700 101.2  48.5    17    NW   6.1  10.0    NW   6.5  12.3    720  0.00  0.00  62.3 102.9
  07/19/18 1600 102.0  46.5    15   NNW   7.8  11.7   NNW   7.5  12.5    886  0.00  0.00  62.3 102.7
  07/19/18 1500  99.6  49.2    18     N   9.2  12.7   NNW   7.8  13.6    993  0.00  0.00  62.3 100.0
  07/19/18 1400  98.4  55.5    24   NNW   8.7  12.7    NW   5.9  12.7   1044  0.00  0.00  62.3  98.4
  07/19/18 1300  94.3  57.7    30   NNW   5.7   9.8   NNW   5.4  10.8   1026  0.00  0.00  62.3  94.5
  07/19/18 1200  89.5  58.4    35    NW   6.0  11.4    NW   5.2  11.4    913  0.00  0.00  62.3  89.8
  07/19/18 1100  84.7  59.0    42    NW   5.2   7.8    NW   5.2   9.3    777  0.00  0.00  62.3  85.1
  07/19/18 1000  79.4  59.1    50    NW   6.7   9.5    NW   6.8  10.1    652  0.00  0.00  62.3  79.9
  07/19/18 0900  75.0  59.5    59   NNW   7.7  11.6    NW   6.9  11.6    445  0.00  0.00  62.3  75.0
  07/19/18 0800  68.4  59.1    72    NW   4.7   6.4    NW   5.6   9.6    235  0.00  0.00  62.3  73.6
  07/19/18 0700  64.4  57.4    78    NW   5.0   7.2   NNW   4.0   7.2     53  0.00  0.00  62.3  73.6
  07/19/18 0600  62.8  56.0    78   NNW   3.8   5.8   NNW   4.1   6.6      1  0.00  0.00  62.7  73.6
  07/19/18 0500  64.4  56.3    75     N   4.5   5.6   NNW   3.4   5.6      0  0.00  0.00  64.3  73.6
  07/19/18 0400  65.6  56.4    72   NNW   2.5   4.1    NW   2.4   4.1      0  0.00  0.00  65.0  73.6
  07/19/18 0300  67.4  57.0    69     N   0.8   4.8     N   2.4   5.2      0  0.00  0.00  67.1  73.6
  07/19/18 0200  69.0  58.1    68     N   2.7   3.6     N   3.2   8.6      0  0.00  0.00  68.7  73.6
  07/19/18 0100  72.2  56.9    59   NNE   2.3   3.7     N   1.4   4.9      0  0.00  0.00  70.8  73.6
  07/19/18 0000  72.0  59.5    65     W   1.1   2.3   ESE   1.1   4.5      0  0.00  0.00  57.3 104.4
  07/18/18 2300  75.5  59.9    58   SSW   1.4   3.7   ENE   1.3   3.7      0  0.00  0.00  57.3 104.4
  07/18/18 2200  78.9  60.6    53     N   0.0   2.7    NE   2.0   4.7      0  0.00  0.00  57.3 104.4
  07/18/18 2100  83.0  60.3    46     N   3.0   6.8   NNW   4.0   6.8      5  0.00  0.00  57.3 104.4
  07/18/18 2000  88.6  60.9    40    NW   3.9   5.6    NW   6.7  11.2    128  0.00  0.00  57.3 104.4
  07/18/18 1900  97.6  54.1    23    NW   7.1   9.3    NW   6.3  10.3    319  0.00  0.00  57.3 104.4
  07/18/18 1800 102.6  53.3    20    NW   7.2   9.5    NW   6.7  12.5    545  0.00  0.00  57.3 104.4
  07/18/18 1700 103.1  54.1    20    NW   8.7  11.1   NNW   8.8  13.5    727  0.00  0.00  57.3 104.4
  07/18/18 1600 102.3  53.4    20    NW   8.4  10.8    NW   8.6  12.7    890  0.00  0.00  57.3 104.2
  07/18/18 1500  99.9  57.4    25   WNW   8.3  12.5    NW   8.5  13.7    994  0.00  0.00  57.3 101.5
  07/18/18 1400  97.1  57.4    27    NW   9.1  14.3    NW   8.0  14.3   1047  0.00  0.00  57.3  98.0
  07/18/18 1300  93.8  58.8    31   WNW   8.1  12.6   WNW   7.2  12.6    970  0.00  0.00  57.3  93.9
  07/18/18 1200  89.4  57.9    35    NW   4.8  11.4    NW   5.2  12.1    967  0.00  0.00  57.3  89.7
  07/18/18 1100  84.4  58.2    41    NW   4.7   9.2    NW   5.2   9.4    838  0.00  0.00  57.3  84.6
  07/18/18 1000  80.5  57.8    46   NNW   5.2   8.7    NW   5.5   9.4    665  0.00  0.00  57.3  80.6
  07/18/18 0900  75.1  58.2    56    NW   5.0   6.2   NNW   5.4   8.8    456  0.00  0.00  57.3  75.2
  07/18/18 0800  70.2  57.2    63   NNW   6.2   7.8   NNW   5.1   8.0    254  0.00  0.00  57.3  70.3
  07/18/18 0700  61.9  54.7    77   NNW   4.4   5.5     N   2.0   5.5     61  0.00  0.00  57.3  69.8
  07/18/18 0600  57.6  51.0    78     W   2.3   2.7   NNW   2.1   4.3      1  0.00  0.00  57.3  69.8
  07/18/18 0500  60.0  52.4    76     N   3.0   4.3   NNW   2.9   4.3      0  0.00  0.00  59.8  69.8
  07/18/18 0400  60.5  50.8    70    NW   3.2   3.7   WNW   2.5   4.8      0  0.00  0.00  59.8  69.8
  07/18/18 0300  61.6  52.3    71     W   0.1   1.9    NW   1.5   3.7      0  0.00  0.00  61.6  69.8
  07/18/18 0200  63.8  48.5    58    NW   1.9   3.8     N   1.3   4.2      0  0.00  0.00  63.7  69.8
  07/18/18 0100  65.5  50.5    58    NE   1.2   2.5   ENE   1.0   2.9      0  0.00  0.00  64.8  69.8
  07/18/18 0000  69.1  54.6    60    NE   2.0   3.5   ENE   1.1   3.8      0  0.00  0.00  56.9 102.8
  07/17/18 2300  70.5  51.5    51   ESE   2.6   3.1   NNW   1.9   3.5      0  0.00  0.00  56.9 102.8
  07/17/18 2200  76.7  52.0    42     W   0.1   3.9   WNW   5.0  11.0      0  0.00  0.00  56.9 102.8
  07/17/18 2100  80.9  52.6    37   WNW   4.8   7.7    NW   3.5   7.7      9  0.00  0.00  56.9 102.8
  07/17/18 2000  88.6  54.3    31    NW   5.0   6.7    NW   5.7   9.2    138  0.00  0.00  56.9 102.8
  07/17/18 1900  95.5  45.7    18    NW   6.1   8.7    NW   7.6  13.0    340  0.00  0.00  56.9 102.8
  07/17/18 1800 100.0  43.5    15   NNW  10.0  12.6   NNW  10.0  15.3    551  0.00  0.00  56.9 102.8
  07/17/18 1700 101.3  42.9    14    NW  10.5  12.7    NW  10.8  15.8    748  0.00  0.00  56.9 102.8
  07/17/18 1600 101.7  43.3    14   NNW  10.5  14.7   NNW  11.0  16.8    912  0.00  0.00  56.9 102.4
  07/17/18 1500 100.1  49.7    18   NNW   9.6  15.2   NNW  10.3  17.8   1005  0.00  0.00  56.9 100.4
  07/17/18 1400  96.9  51.3    22    NW   8.7  14.0    NW  10.4  17.0   1061  0.00  0.00  56.9  98.5
  07/17/18 1300  93.9  51.5    24    NW  11.5  14.6    NW  10.0  15.1   1048  0.00  0.00  56.9  94.1
  07/17/18 1200  89.4  50.6    27    NW   7.3  12.3    NW   8.4  15.6    976  0.00  0.00  56.9  89.6
  07/17/18 1100  84.8  52.2    33   NNW   7.6  12.2    NW   7.0  12.2    846  0.00  0.00  56.9  85.1
  07/17/18 1000  79.7  54.2    41   NNW   6.6   9.4    NW   6.1  10.5    670  0.00  0.00  56.9  80.0
  07/17/18 0900  74.2  54.5    50    NW   6.4   9.5    NW   5.8   9.5    466  0.00  0.00  56.9  74.6
  07/17/18 0800  68.1  53.4    59    NW   7.3  10.4    NW   5.5  10.4    257  0.00  0.00  56.9  70.0
  07/17/18 0700  61.0  52.8    74    NW   3.3   4.5    NW   3.0   5.3     63  0.00  0.00  56.9  70.0
  07/17/18 0600  57.4  50.2    77   WNW   1.4   2.6   NNW   2.6   5.3      1  0.00  0.00  57.3  70.0
  07/17/18 0500  58.8  48.4    68    NW   1.8   2.6   NNW   2.1   4.6      0  0.00  0.00  58.5  70.0
  07/17/18 0400  62.6  48.5    60     N   2.4   4.6     N   2.1   4.9      0  0.00  0.00  61.6  70.0
  07/17/18 0300  62.9  48.8    60     N   1.6   3.0     N   1.6   3.4      0  0.00  0.00  62.2  70.0
  07/17/18 0200  65.3  49.1    56   NNW   0.9   2.0     N   1.3   3.8      0  0.00  0.00  65.3  70.0
  07/17/18 0100  68.4  50.0    52   NNE   1.5   3.6    NE   2.1   5.2      0  0.00  0.00  68.2  70.0
  07/17/18 0000  69.8  52.1    53     E   2.0   3.5   NNE   1.7   3.9      0  0.00  0.00  58.5 101.0
  07/16/18 2300  73.2  54.3    51   NNE   1.5   2.4   NNW   2.0   3.8      0  0.00  0.00  58.5 101.0
  07/16/18 2200  73.4  55.5    53     W   1.3   2.6   NNW   2.7   5.8      0  0.00  0.00  58.5 101.0
  07/16/18 2100  79.9  54.0    41   NNW   4.8   8.2   NNW   6.2   9.5      8  0.00  0.00  58.5 101.0
  07/16/18 2000  87.4  54.6    33   NNW   5.7   8.4   NNW   7.5  12.7    132  0.00  0.00  58.5 101.0
  07/16/18 1900  93.7  54.0    26    NW   8.0  12.3   NNW   9.1  14.7    327  0.00  0.00  58.5 101.0
  07/16/18 1800  98.5  49.0    19   NNW   9.5  12.9   NNW  10.0  15.9    537  0.00  0.00  58.5 101.0
  07/16/18 1700  99.2  50.2    19    NW  11.5  15.4   NNW  11.0  16.2    727  0.00  0.00  58.5 101.0
  07/16/18 1600  99.5  55.1    23    NW   9.5  13.8   NNW  10.1  16.1    888  0.00  0.00  58.5  99.7
  07/16/18 1500  98.0  56.4    25   NNW  10.4  16.6   NNW  10.2  16.6    999  0.00  0.00  58.5  99.0
  07/16/18 1400  94.4  56.6    28   NNW   8.3  13.5   NNW   8.8  15.6   1043  0.00  0.00  58.5  95.0
  07/16/18 1300  90.9  56.3    31   NNW   9.5  13.0    NW   8.3  14.9   1029  0.00  0.00  58.5  91.2
  07/16/18 1200  85.6  55.7    36   NNW   5.9  12.5    NW   8.6  14.9    957  0.00  0.00  58.5  86.4
  07/16/18 1100  81.3  55.9    42    NW   6.9  13.9   NNW   6.9  15.3    829  0.00  0.00  58.5  81.4
  07/16/18 1000  75.6  56.1    51    NW   7.0  11.9   NNW   6.2  11.9    656  0.00  0.00  58.5  75.7
  07/16/18 0900  70.4  56.3    61   NNW   5.8   9.1     N   5.8   9.5    454  0.00  0.00  58.5  70.8
  07/16/18 0800  64.5  55.5    73     N   6.1   8.2     N   5.5  10.1    248  0.00  0.00  58.5  69.6
  07/16/18 0700  61.2  53.5    76     N   4.3   6.1     N   3.8   6.1     61  0.00  0.00  58.5  69.6
  07/16/18 0600  59.0  51.3    75     N   3.9   4.9     N   3.5   6.2      1  0.00  0.00  58.7  69.6
  07/16/18 0500  60.3  49.9    68     N   3.9   4.8     N   3.7   6.6      0  0.00  0.00  60.3  69.6
  07/16/18 0400  60.9  50.5    69     N   3.3   4.1   NNW   2.6   4.2      0  0.00  0.00  60.3  69.6
  07/16/18 0300  62.8  48.9    60   NNW   2.7   3.2     N   2.0   4.5      0  0.00  0.00  62.6  69.6
  07/16/18 0200  65.3  48.9    55     N   2.8   3.8     N   2.5   5.3      0  0.00  0.00  65.0  69.6
  07/16/18 0100  67.7  51.1    55    NE   3.4   4.6   NNE   1.9   4.8      0  0.00  0.00  67.5  69.6
  07/16/18 0000  69.4  53.9    58   NNE   1.4   3.0    NE   1.5   3.5      0  0.00  0.00  61.0  96.8
  07/15/18 2300  71.5  56.3    59     E   2.0   2.7   NNE   1.6   3.9      0  0.00  0.00  61.0  96.8
  07/15/18 2200  73.9  53.6    49   WNW   2.5   5.6    NW   2.7   5.6      0  0.00  0.00  61.0  96.8
  07/15/18 2100  77.8  54.8    45   NNW   3.2   3.7    NW   4.4   7.5     12  0.00  0.00  61.0  96.8
  07/15/18 2000  85.4  55.0    35   WNW   6.0   8.2   WNW   7.3  12.9    170  0.00  0.00  61.0  96.8
  07/15/18 1900  91.2  58.8    34    NW   6.2  11.3    NW   8.8  13.4    374  0.00  0.00  61.0  96.8
  07/15/18 1800  95.1  54.5    26   NNW   7.8  11.6    NW   9.2  14.8    545  0.00  0.00  61.0  96.8
  07/15/18 1700  95.7  56.2    27    NW   9.8  12.5   NNW   9.1  14.3    729  0.00  0.00  61.0  96.7
  07/15/18 1600  95.8  55.8    26   NNW   9.3  13.2   NNW   8.9  16.0    884  0.00  0.00  61.0  96.4
  07/15/18 1500  95.1  55.4    27   NNW  11.8  17.8   NNW  10.3  18.1    989  0.00  0.00  61.0  95.4
  07/15/18 1400  91.8  57.5    32    NW   8.9  16.8   NNW   8.9  16.8   1031  0.00  0.00  61.0  92.4
  07/15/18 1300  88.5  56.1    33   NNW   9.4  12.6   NNW   8.3  14.1   1019  0.00  0.00  61.0  88.8
  07/15/18 1200  85.7  56.6    37    NW   9.2  12.6   NNW   6.8  13.4    947  0.00  0.00  61.0  85.9
  07/15/18 1100  81.3  54.5    40   NNW   8.0  11.3    NW   7.0  11.8    819  0.00  0.00  61.0  81.5
  07/15/18 1000  76.3  56.4    50    NW   7.0  10.8   NNW   6.2  11.1    647  0.00  0.00  61.0  78.0
  07/15/18 0900  72.1  56.5    58     N   4.3   7.9     N   5.0   8.2    446  0.00  0.00  61.0  72.6
  07/15/18 0800  67.4  54.5    63     N   5.3   8.2     N   5.5   9.8    240  0.00  0.00  61.0  72.0
  07/15/18 0700  63.0  54.0    72     N   5.2   6.8     N   3.3   6.8     47  0.00  0.00  61.0  72.0
  07/15/18 0600  61.2  54.1    77   NNW   3.0   3.5     N   3.5   7.5      1  0.00  0.00  61.1  72.0
  07/15/18 0500  63.8  53.3    69   NNE   3.1   6.1     N   4.0   7.6      0  0.00  0.00  63.0  72.0
  07/15/18 0400  64.2  54.0    70   NNE   3.3   4.7     N   3.5   6.1      0  0.00  0.00  63.8  72.0
  07/15/18 0300  65.0  54.9    70     N   4.4   5.4     N   3.6   6.6      0  0.00  0.00  64.5  72.0